< < Back
Terminal Aerodrome Forecast


Current Version              Previous Versions:   1  2  3  4  5  6  7  8  9  

Terminal Aerodrome Forecast

810
FTUS44 KMRX 281724
TAFCHA
TAF
KCHA 281724Z 2818/2918 03005KT P6SM VCTS SCT050CB BKN150
      TEMPO 2820/2823 -TSRA BKN035CB
     FM290200 VRB02KT P6SM FEW070
     FM291500 03005KT P6SM FEW050=

Latest METAR

756
SAUS80 KWBC 282000
MTRCHA
METAR KCHA 281953Z COR VRB05KT 10SM VCTS FEW045 SCT065 SCT120 SCT250
33/19 A3010 RMK AO2 LTG DSNT E-S SLP182 OCNL LTGICCG VC E-S
TS VC E-S MOV W T03330194 $


USA.gov is the U.S. government's official web portal to all federal, state and local government web resources and services.